NLSK1: Solomon River, Niles, KS

                                SHEF ID:       NLSK1     SOLOMON R AT NILES, KS
STATION TYPE:

PRECIP STAGE RIV-FLOW BAT-LOAD
in ft cfs volt
Ccp-Rev Ccp-Rev Ccp-Rev Ccp-Rev
(America/Chicago)
06/21 00:00 0.00 6.51 364 11.75
06/21 01:00 0.00 6.53 367 11.70
06/21 02:00 0.01 6.66 386 11.68
06/21 03:00 0.00 6.74 398 11.69
06/21 04:00 0.00 6.91 425 11.68
06/21 05:00 0.00 7.17 466 11.71
06/21 06:00 0.00 7.49 520 11.71
06/21 07:00 0.01 7.91 593 11.61
06/21 08:00 0.00 8.38 681 11.65
06/21 09:00 0.01 8.87 778 11.75
06/21 10:00 0.00 9.32 872 12.21
06/21 11:00 0.01 9.72 959 12.37
06/21 12:00 0.00 10.01 1024 12.44
06/21 13:00 0.00 10.23 1075 12.34
06/21 14:00 0.00 10.34 1101 12.23
06/21 15:00 0.00 10.36 1106 12.31
06/21 16:00 0.00 10.31 1094 12.42
06/21 17:00 0.00 10.20 1068 12.24
06/21 18:00 0.00 10.05 1033 12.25
06/21 19:00 0.00 9.88 995 12.03
06/21 20:00 0.00 9.70 954 11.87
06/21 21:00 0.00 9.54 919 11.85
06/21 22:00 0.00 9.39 887 11.76
06/21 23:00 0.00 9.28 863 11.68
Data processed at Mon 22Jun2026 04:41 GMT

NOTICE: If you are parsing this page

Please convert to using our Data API. Starting early 2026 we will be migrating to: https://water.usace.army.mil with modern pages rendered in JavaScript. When this migration completes you will no longer be able to scrape this page! CWMSDataAPI (CDA)

Timeseries IDs (TSIDs)

TSIDs used from left to right in the data table
NLSK.Precip-Inc.Total.1Hour.1Hour.Ccp-Rev
NLSK.Stage.Inst.1Hour.0.Ccp-Rev
NLSK.Flow.Inst.1Hour.0.Ccp-Rev
NLSK.Volt-Battery Load.Inst.1Hour.0.Ccp-Rev

                            

All information presented herein is the property of the government of the United States of America and may be revised or deleted at any time without prior notice. Dissemination of this information without the expressed written consent of the Public Affairs Office, Tulsa District U.S. Army Corps of Engineers is strictly prohibited. These data are gathered electronically and, as presented, have NOT undergone any form of quality control. These data are NOT guaranteed to be valid or correct.